createdAt,value
2022-08-18T00:01:11.903Z,27.70
2022-08-18T00:03:55.595Z,29.17
2022-08-18T00:06:30.029Z,28.30
2022-08-18T00:09:00.054Z,24.70
2022-08-18T00:11:41.493Z,28.73
2022-08-18T00:14:21.207Z,27.70
2022-08-18T00:16:53.030Z,25.17
2022-08-18T00:19:47.129Z,27.57
2022-08-18T00:22:15.639Z,26.03
2022-08-18T00:24:47.651Z,27.63
2022-08-18T00:27:23.354Z,28.93
2022-08-18T00:29:53.958Z,27.37
2022-08-18T00:32:24.129Z,25.43
2022-08-18T00:34:53.087Z,35.00
2022-08-18T00:37:23.615Z,26.23
2022-08-18T00:39:53.689Z,28.87
2022-08-18T00:42:29.827Z,26.37
2022-08-18T00:45:02.311Z,26.90
2022-08-18T00:47:42.567Z,31.60
2022-08-18T00:50:15.775Z,25.60
2022-08-18T00:52:52.095Z,26.40
2022-08-18T00:55:23.195Z,28.50
2022-08-18T00:57:56.334Z,26.20
2022-08-18T01:00:24.870Z,25.40
2022-08-18T01:02:57.743Z,25.60
2022-08-18T01:05:30.466Z,28.30
2022-08-18T01:08:00.239Z,26.57
2022-08-18T01:10:28.551Z,28.83
2022-08-18T01:12:58.895Z,25.17
2022-08-18T01:15:30.474Z,27.83
2022-08-18T01:18:18.008Z,28.40
2022-08-18T01:21:22.822Z,26.20
2022-08-18T01:23:54.726Z,27.20
2022-08-18T01:26:24.395Z,25.07
2022-08-18T01:28:54.157Z,25.50
2022-08-18T01:31:38.364Z,29.53
2022-08-18T01:34:08.189Z,29.20
2022-08-18T01:36:38.646Z,27.33
2022-08-18T01:39:11.187Z,26.63
2022-08-18T01:41:40.622Z,29.10
2022-08-18T01:44:11.620Z,28.80
2022-08-18T01:46:41.833Z,30.80
2022-08-18T01:49:13.383Z,30.27
2022-08-18T01:51:42.791Z,29.53
2022-08-18T01:54:15.181Z,28.67
2022-08-18T01:56:44.820Z,28.23
2022-08-18T01:59:14.693Z,24.90
2022-08-18T02:01:50.492Z,31.33
2022-08-18T02:04:35.607Z,32.17
2022-08-18T02:07:08.883Z,26.70
2022-08-18T02:09:41.413Z,29.97
2022-08-18T02:12:10.410Z,30.83
2022-08-18T02:14:39.688Z,26.73
2022-08-18T02:17:11.133Z,26.07
2022-08-18T02:19:44.143Z,29.70
2022-08-18T02:22:16.273Z,27.87
2022-08-18T02:24:46.552Z,27.20
2022-08-18T02:27:16.404Z,29.37
2022-08-18T02:29:44.911Z,27.17
2022-08-18T02:32:13.291Z,26.93
2022-08-18T02:34:42.931Z,30.53
2022-08-18T02:37:15.290Z,28.87
2022-08-18T02:39:46.050Z,28.67
2022-08-18T02:42:17.150Z,33.13
2022-08-18T02:44:46.137Z,29.13
2022-08-18T02:47:14.781Z,30.40
2022-08-18T02:49:43.621Z,27.07
2022-08-18T02:52:11.984Z,32.00
2022-08-18T02:54:40.539Z,27.97
2022-08-18T02:57:12.311Z,29.07
2022-08-18T02:59:41.801Z,30.70
2022-08-18T03:02:16.342Z,28.00
2022-08-18T03:04:45.064Z,28.37
2022-08-18T03:07:14.937Z,28.73
2022-08-18T03:09:43.874Z,30.73
2022-08-18T03:12:13.927Z,26.17
2022-08-18T03:14:42.385Z,27.87
2022-08-18T03:17:10.929Z,29.00
2022-08-18T03:19:39.505Z,28.27
2022-08-18T03:22:27.789Z,26.90
2022-08-18T03:24:57.950Z,28.67
2022-08-18T03:27:28.382Z,27.03
2022-08-18T03:29:58.796Z,30.23
2022-08-18T03:32:27.622Z,31.40
2022-08-18T03:34:56.056Z,31.67
2022-08-18T03:37:24.704Z,27.17
2022-08-18T03:39:53.628Z,28.17
2022-08-18T03:42:22.185Z,26.50
2022-08-18T03:44:52.481Z,36.67
2022-08-18T03:47:21.241Z,26.50
2022-08-18T03:49:49.993Z,33.57
2022-08-18T03:52:18.488Z,30.57
2022-08-18T03:54:47.140Z,33.57
2022-08-18T03:57:15.793Z,31.40
2022-08-18T03:59:44.260Z,30.63
2022-08-18T04:02:16.304Z,35.97
2022-08-18T04:04:44.758Z,33.43
2022-08-18T04:07:17.680Z,36.47
2022-08-18T04:09:47.112Z,29.93
2022-08-18T04:12:17.742Z,29.47
2022-08-18T04:14:48.756Z,29.50
2022-08-18T04:17:23.534Z,30.37
2022-08-18T04:19:52.700Z,32.40
2022-08-18T04:22:21.204Z,29.77
2022-08-18T04:24:50.375Z,31.40
2022-08-18T04:27:19.295Z,33.10
2022-08-18T04:29:48.029Z,34.10
2022-08-18T04:32:16.584Z,30.03
2022-08-18T04:34:46.674Z,29.87
2022-08-18T04:37:15.537Z,32.57
2022-08-18T04:39:45.616Z,31.07
2022-08-18T04:42:14.543Z,29.33
2022-08-18T04:44:43.432Z,31.80
2022-08-18T04:47:13.324Z,33.03
2022-08-18T04:49:44.602Z,35.37
2022-08-18T04:52:40.645Z,35.90
2022-08-18T04:55:11.403Z,32.80
2022-08-18T04:57:42.667Z,33.50
2022-08-18T05:00:14.050Z,40.93
2022-08-18T05:02:42.820Z,38.30
2022-08-18T05:05:11.418Z,35.93
2022-08-18T05:07:46.133Z,33.67
2022-08-18T05:10:17.775Z,32.60
2022-08-18T05:12:48.857Z,38.03
2022-08-18T05:15:18.977Z,38.73
2022-08-18T05:17:50.541Z,35.10
2022-08-18T05:20:20.145Z,35.53
2022-08-18T05:22:51.059Z,32.50
2022-08-18T05:25:19.504Z,35.80
2022-08-18T05:27:47.898Z,34.23
2022-08-18T05:30:16.773Z,38.03
2022-08-18T05:32:50.124Z,37.10
2022-08-18T05:35:24.407Z,28.50
2022-08-18T05:38:15.707Z,34.07
2022-08-18T05:40:45.774Z,34.27
2022-08-18T05:43:16.232Z,33.43
2022-08-18T05:45:44.591Z,32.87
2022-08-18T05:48:12.859Z,32.47
2022-08-18T05:50:41.368Z,34.73
2022-08-18T05:53:15.136Z,36.00
2022-08-18T05:56:06.518Z,39.63
2022-08-18T05:58:41.028Z,34.03
2022-08-18T06:01:18.883Z,39.25
2022-08-18T06:03:51.376Z,30.38
2022-08-18T06:06:24.136Z,40.22
2022-08-18T06:08:59.097Z,33.07
2022-08-18T06:11:27.655Z,32.63
2022-08-18T06:14:00.033Z,31.30
2022-08-18T06:16:49.966Z,35.33
2022-08-18T06:19:33.756Z,34.35
2022-08-18T06:22:12.431Z,32.60
2022-08-18T06:24:52.482Z,32.92
2022-08-18T06:27:26.135Z,39.10
2022-08-18T06:30:12.606Z,31.63
2022-08-18T06:33:01.462Z,31.60
2022-08-18T06:35:36.592Z,29.38
2022-08-18T06:38:41.037Z,29.90
2022-08-18T06:41:43.254Z,31.38
2022-08-18T06:44:09.932Z,31.25
2022-08-18T06:46:43.445Z,34.22
2022-08-18T06:49:15.391Z,33.83
2022-08-18T06:51:46.143Z,27.75
2022-08-18T06:54:29.436Z,24.45
2022-08-18T06:57:00.092Z,24.70
2022-08-18T06:59:30.561Z,25.67
2022-08-18T07:02:19.687Z,26.05
2022-08-18T07:05:01.611Z,24.77
2022-08-18T07:07:39.602Z,29.60
2022-08-18T07:10:32.782Z,26.63
2022-08-18T07:13:20.262Z,24.85
2022-08-18T07:15:50.024Z,33.22
2022-08-18T07:18:25.460Z,20.70
2022-08-18T07:20:57.289Z,21.85
2022-08-18T07:23:30.289Z,21.02
2022-08-18T07:26:09.580Z,24.75
2022-08-18T07:28:41.906Z,17.88
2022-08-18T07:31:20.575Z,17.27
2022-08-18T07:33:55.948Z,22.40
2022-08-18T07:36:29.822Z,21.55
2022-08-18T07:39:03.724Z,20.40
2022-08-18T07:41:38.082Z,16.80
2022-08-18T07:44:18.782Z,19.13
2022-08-18T07:46:55.645Z,18.40
2022-08-18T07:49:26.083Z,18.45
2022-08-18T07:52:02.470Z,18.67
2022-08-18T07:54:51.077Z,16.33
2022-08-18T07:57:29.843Z,17.20
2022-08-18T08:00:10.469Z,17.55
2022-08-18T08:02:58.940Z,14.60
2022-08-18T08:05:41.057Z,16.75
2022-08-18T08:08:25.049Z,14.82
2022-08-18T08:11:06.178Z,12.50
2022-08-18T08:13:55.100Z,20.63
2022-08-18T08:16:37.587Z,15.60
2022-08-18T08:19:36.561Z,20.33
2022-08-18T08:22:17.861Z,17.25
2022-08-18T08:24:57.400Z,13.63
2022-08-18T08:27:37.611Z,14.82
2022-08-18T08:30:10.554Z,19.42
2022-08-18T08:32:51.979Z,14.02
2022-08-18T08:35:49.707Z,18.52
2022-08-18T08:38:40.354Z,14.00
2022-08-18T08:41:18.251Z,15.18
2022-08-18T08:43:52.345Z,12.73
2022-08-18T08:46:24.258Z,12.60
2022-08-18T08:49:07.491Z,16.33
2022-08-18T08:51:40.697Z,13.02
2022-08-18T08:54:16.234Z,10.63
2022-08-18T08:56:47.786Z,9.68
2022-08-18T08:59:17.961Z,10.63
2022-08-18T09:01:54.732Z,11.90
2022-08-18T09:04:37.718Z,12.20
2022-08-18T09:07:39.809Z,11.95
2022-08-18T09:10:39.630Z,15.35
2022-08-18T09:13:29.270Z,13.20
2022-08-18T09:16:23.884Z,12.85
2022-08-18T09:19:13.179Z,10.65
2022-08-18T09:21:49.730Z,12.27
2022-08-18T09:24:25.786Z,10.98
2022-08-18T09:27:14.888Z,12.55
2022-08-18T09:29:53.554Z,10.25
2022-08-18T09:33:18.658Z,10.65
2022-08-18T09:36:10.307Z,10.00
2022-08-18T09:39:08.703Z,12.43
2022-08-18T09:41:49.004Z,10.85
2022-08-18T09:44:58.691Z,14.27
2022-08-18T09:48:10.060Z,8.95
2022-08-18T09:51:17.713Z,11.00
2022-08-18T09:54:21.372Z,9.80
2022-08-18T09:57:20.723Z,9.20
2022-08-18T10:00:00.502Z,15.85
2022-08-18T10:03:12.942Z,11.40
2022-08-18T10:05:56.810Z,9.27
2022-08-18T10:09:14.568Z,7.60
2022-08-18T10:12:21.240Z,10.98
2022-08-18T10:15:33.814Z,9.02
2022-08-18T10:18:27.410Z,11.90
2022-08-18T10:21:09.185Z,8.68
2022-08-18T10:24:35.227Z,8.98
2022-08-18T10:27:40.128Z,9.15
2022-08-18T10:30:57.312Z,9.32
2022-08-18T10:33:58.633Z,7.38
2022-08-18T10:37:00.385Z,9.90
2022-08-18T10:39:50.065Z,11.05
2022-08-18T10:42:30.971Z,8.45
2022-08-18T10:45:09.452Z,7.07
2022-08-18T10:47:38.978Z,9.38
2022-08-18T10:50:21.502Z,7.57
2022-08-18T10:53:33.129Z,7.25
2022-08-18T10:55:55.141Z,10.82
2022-08-18T10:58:47.954Z,8.00
2022-08-18T11:01:36.271Z,8.75
2022-08-18T11:04:33.321Z,10.23
2022-08-18T11:07:08.556Z,6.30
2022-08-18T11:09:41.736Z,9.52
2022-08-18T11:12:13.079Z,7.97
2022-08-18T11:15:22.336Z,9.82
2022-08-18T11:18:05.864Z,6.35
2022-08-18T11:20:39.561Z,7.93
2022-08-18T11:23:17.005Z,8.20
2022-08-18T11:25:45.982Z,8.57
2022-08-18T11:28:19.254Z,7.40
2022-08-18T11:30:52.632Z,6.43
2022-08-18T11:33:24.453Z,9.55
2022-08-18T11:35:57.854Z,6.95
2022-08-18T11:38:29.676Z,10.88
2022-08-18T11:41:13.745Z,7.40
2022-08-18T11:43:47.501Z,6.68
2022-08-18T11:46:30.786Z,5.80
2022-08-18T11:49:01.653Z,6.05
2022-08-18T11:51:32.343Z,6.55
2022-08-18T11:54:03.169Z,6.72
2022-08-18T11:56:35.991Z,7.70
2022-08-18T11:59:08.635Z,8.55
2022-08-18T12:01:51.410Z,9.68
2022-08-18T12:04:40.687Z,7.40
2022-08-18T12:07:14.213Z,9.15
2022-08-18T12:10:18.409Z,9.07
2022-08-18T12:12:50.107Z,9.02
2022-08-18T12:15:43.871Z,6.15
2022-08-18T12:18:28.541Z,8.35
2022-08-18T12:20:59.276Z,5.25
2022-08-18T12:23:38.916Z,7.53
2022-08-18T12:26:38.853Z,8.48
2022-08-18T12:29:11.842Z,9.82
2022-08-18T12:31:42.422Z,5.47
2022-08-18T12:34:25.068Z,5.55
2022-08-18T12:36:58.544Z,6.05
2022-08-18T12:39:26.796Z,5.80
2022-08-18T12:41:55.104Z,9.02
2022-08-18T12:44:23.443Z,7.35
2022-08-18T12:46:57.274Z,9.43
2022-08-18T12:49:29.549Z,7.40
2022-08-18T12:51:58.449Z,5.88
2022-08-18T12:54:26.817Z,9.82
2022-08-18T12:56:57.613Z,6.32
2022-08-18T12:59:26.656Z,7.80
2022-08-18T13:02:09.677Z,4.53
2022-08-18T13:04:40.911Z,7.20
2022-08-18T13:07:09.165Z,7.03
2022-08-18T13:09:53.509Z,5.72
2022-08-18T13:12:24.140Z,5.53
2022-08-18T13:14:55.123Z,5.93
2022-08-18T13:17:29.789Z,9.35
2022-08-18T13:20:04.997Z,6.97
2022-08-18T13:22:33.624Z,6.65
2022-08-18T13:25:03.862Z,7.65
2022-08-18T13:27:35.377Z,10.63
2022-08-18T13:30:30.622Z,11.18
2022-08-18T13:32:58.769Z,8.18
2022-08-18T13:35:30.043Z,6.53
2022-08-18T13:38:14.101Z,20.65
2022-08-18T13:40:48.421Z,13.23
2022-08-18T13:43:18.614Z,7.38
2022-08-18T13:45:52.930Z,8.48
2022-08-18T13:48:21.943Z,8.98
2022-08-18T13:50:55.660Z,6.78
2022-08-18T13:53:27.162Z,9.35
2022-08-18T13:55:58.578Z,6.95
2022-08-18T13:58:27.662Z,8.18
2022-08-18T14:01:22.920Z,12.27
2022-08-18T14:03:48.376Z,9.57
2022-08-18T14:06:22.893Z,11.70
2022-08-18T14:08:53.287Z,8.02
2022-08-18T14:11:26.745Z,7.70
2022-08-18T14:13:56.633Z,7.25
2022-08-18T14:16:26.759Z,8.38
2022-08-18T14:19:13.110Z,9.85
2022-08-18T14:22:03.295Z,9.23
2022-08-18T14:24:50.152Z,7.45
2022-08-18T14:27:19.267Z,10.18
2022-08-18T14:29:49.733Z,6.78
2022-08-18T14:32:29.315Z,9.32
2022-08-18T14:35:00.871Z,9.30
2022-08-18T14:37:48.762Z,7.97
2022-08-18T14:40:20.282Z,8.27
2022-08-18T14:42:54.544Z,9.15
2022-08-18T14:45:31.491Z,9.30
2022-08-18T14:48:07.481Z,6.82
2022-08-18T14:50:40.107Z,8.52
2022-08-18T14:53:15.107Z,5.57
2022-08-18T14:55:44.418Z,8.75
2022-08-18T14:58:18.851Z,7.93
2022-08-18T15:00:53.313Z,7.47
2022-08-18T15:03:30.877Z,8.15
2022-08-18T15:06:00.932Z,7.13
2022-08-18T15:08:35.354Z,10.30
2022-08-18T15:11:11.313Z,9.77
2022-08-18T15:13:41.694Z,9.48
2022-08-18T15:16:13.507Z,8.30
2022-08-18T15:18:42.032Z,6.90
2022-08-18T15:21:35.047Z,8.82
2022-08-18T15:24:26.608Z,9.80
2022-08-18T15:26:57.571Z,10.00
2022-08-18T15:29:29.416Z,8.40
2022-08-18T15:32:02.317Z,8.38
2022-08-18T15:34:47.043Z,8.23
2022-08-18T15:37:22.212Z,9.35
2022-08-18T15:40:05.358Z,6.85
2022-08-18T15:42:33.716Z,10.82
2022-08-18T15:45:12.087Z,10.60
2022-08-18T15:47:42.525Z,7.47
2022-08-18T15:50:25.208Z,7.05
2022-08-18T15:52:55.691Z,9.40
2022-08-18T15:55:27.659Z,10.00
2022-08-18T15:57:58.219Z,10.15
2022-08-18T16:00:29.899Z,7.47
2022-08-18T16:03:01.431Z,12.68
2022-08-18T16:05:33.096Z,8.80
2022-08-18T16:08:01.520Z,9.65
2022-08-18T16:10:33.900Z,9.35
2022-08-18T16:13:04.616Z,9.93
2022-08-18T16:15:37.049Z,8.95
2022-08-18T16:18:07.156Z,8.07
2022-08-18T16:20:36.307Z,10.20
2022-08-18T16:23:05.462Z,8.82
2022-08-18T16:25:37.966Z,7.97
2022-08-18T16:28:07.043Z,7.60
2022-08-18T16:30:35.881Z,9.20
2022-08-18T16:33:06.741Z,13.18
2022-08-18T16:35:37.333Z,10.40
2022-08-18T16:38:08.706Z,10.52
2022-08-18T16:40:40.319Z,12.43
2022-08-18T16:43:08.997Z,9.65
2022-08-18T16:45:38.174Z,10.50
2022-08-18T16:48:08.295Z,13.00
2022-08-18T16:50:37.660Z,8.25
2022-08-18T16:53:06.399Z,9.20
2022-08-18T16:55:35.312Z,9.32
2022-08-18T16:58:23.484Z,11.18
2022-08-18T17:01:11.526Z,7.78
2022-08-18T17:04:03.360Z,8.52
2022-08-18T17:06:31.694Z,10.80
2022-08-18T17:09:09.190Z,9.88
2022-08-18T17:11:51.502Z,11.40
2022-08-18T17:14:22.998Z,12.02
2022-08-18T17:16:54.837Z,10.45
2022-08-18T17:19:24.546Z,10.63
2022-08-18T17:21:52.967Z,12.05
2022-08-18T17:24:31.363Z,9.40
2022-08-18T17:27:11.772Z,10.25
2022-08-18T17:30:01.773Z,11.85
2022-08-18T17:35:09.846Z,8.93
2022-08-18T17:37:41.238Z,11.98
2022-08-18T17:40:16.198Z,10.65
2022-08-18T17:42:44.655Z,9.85
2022-08-18T17:45:22.381Z,11.45
2022-08-18T17:47:57.947Z,11.23
2022-08-18T17:50:47.957Z,10.85
2022-08-18T17:53:17.713Z,11.23
2022-08-18T17:55:50.940Z,9.38
2022-08-18T17:58:24.522Z,11.98
2022-08-18T18:00:54.084Z,10.77
2022-08-18T18:03:22.662Z,9.75
2022-08-18T18:05:54.518Z,9.98
2022-08-18T18:08:22.985Z,9.38
2022-08-18T18:11:07.659Z,12.95
2022-08-18T18:13:35.912Z,12.38
2022-08-18T18:16:24.078Z,11.52
2022-08-18T18:19:01.263Z,12.88
2022-08-18T18:21:55.414Z,9.98
2022-08-18T18:24:23.827Z,10.13
2022-08-18T18:26:53.203Z,13.93
2022-08-18T18:29:29.158Z,10.23
2022-08-18T18:32:05.517Z,9.85
2022-08-18T18:34:39.654Z,14.93
2022-08-18T18:37:25.446Z,12.20
2022-08-18T18:39:59.251Z,13.77
2022-08-18T18:42:30.850Z,14.63
2022-08-18T18:45:01.187Z,12.88
2022-08-18T18:47:49.826Z,14.88
2022-08-18T18:50:27.091Z,11.95
2022-08-18T18:53:08.443Z,15.65
2022-08-18T18:55:44.928Z,11.85
2022-08-18T18:58:24.632Z,15.75
2022-08-18T19:01:00.321Z,11.00
2022-08-18T19:03:36.702Z,11.77
2022-08-18T19:06:15.235Z,14.80
2022-08-18T19:08:54.813Z,18.02
2022-08-18T19:11:33.222Z,15.43
2022-08-18T19:14:07.551Z,13.85
2022-08-18T19:16:41.005Z,17.48
2022-08-18T19:19:35.416Z,12.23
2022-08-18T19:22:15.936Z,16.38
2022-08-18T19:24:53.789Z,18.10
2022-08-18T19:27:31.477Z,14.30
2022-08-18T19:30:06.206Z,19.05
2022-08-18T19:32:40.831Z,19.17
2022-08-18T19:35:16.224Z,18.55
2022-08-18T19:38:10.347Z,16.25
2022-08-18T19:40:47.426Z,17.80
2022-08-18T19:43:27.405Z,15.70
2022-08-18T19:46:02.670Z,17.23
2022-08-18T19:48:41.689Z,18.15
2022-08-18T19:51:16.117Z,17.52
2022-08-18T19:54:05.293Z,17.17
2022-08-18T19:56:53.410Z,18.88
2022-08-18T19:59:35.983Z,15.95
2022-08-18T20:02:20.874Z,23.27
2022-08-18T20:05:04.594Z,18.25
2022-08-18T20:08:04.285Z,19.45
2022-08-18T20:11:03.970Z,18.92
2022-08-18T20:13:36.118Z,17.80
2022-08-18T20:16:43.642Z,15.93
2022-08-18T20:20:07.310Z,16.63
2022-08-18T20:22:43.149Z,18.80
2022-08-18T20:25:38.750Z,19.23
2022-08-18T20:28:33.244Z,18.83
2022-08-18T20:31:12.337Z,19.10
2022-08-18T20:33:46.896Z,16.52
2022-08-18T20:36:25.271Z,15.48
2022-08-18T20:38:55.305Z,17.13
2022-08-18T20:41:41.858Z,15.98
2022-08-18T20:44:40.698Z,15.43
2022-08-18T20:47:23.685Z,15.95
2022-08-18T20:50:04.294Z,17.73
2022-08-18T20:52:40.891Z,20.20
2022-08-18T20:55:21.402Z,17.17
2022-08-18T20:57:55.486Z,19.55
2022-08-18T21:00:27.257Z,17.20
2022-08-18T21:02:58.106Z,18.00
2022-08-18T21:05:29.104Z,16.83
2022-08-18T21:08:07.459Z,18.67
2022-08-18T21:10:36.085Z,16.52
2022-08-18T21:13:08.261Z,18.80
2022-08-18T21:15:38.609Z,17.92
2022-08-18T21:18:10.021Z,21.35
2022-08-18T21:20:38.301Z,15.60
2022-08-18T21:23:09.274Z,19.35
2022-08-18T21:25:42.047Z,19.13
2022-08-18T21:28:13.282Z,21.80
2022-08-18T21:30:54.711Z,18.23
2022-08-18T21:33:23.091Z,17.92
2022-08-18T21:35:51.422Z,19.02
2022-08-18T21:38:27.962Z,21.70
2022-08-18T21:40:59.968Z,19.17
2022-08-18T21:43:48.950Z,17.92
2022-08-18T21:46:26.028Z,26.35
2022-08-18T21:48:56.540Z,22.30
2022-08-18T21:51:29.566Z,19.55
2022-08-18T21:53:58.146Z,23.17
2022-08-18T21:56:29.419Z,22.33
2022-08-18T21:59:11.599Z,17.98
2022-08-18T22:01:49.897Z,19.65
2022-08-18T22:04:26.996Z,18.02
2022-08-18T22:06:58.249Z,22.38
2022-08-18T22:09:47.137Z,20.52
2022-08-18T22:12:41.891Z,20.63
2022-08-18T22:15:17.653Z,23.38
2022-08-18T22:17:54.920Z,20.23
2022-08-18T22:20:46.444Z,26.05
2022-08-18T22:23:44.842Z,22.35
2022-08-18T22:26:21.546Z,22.48
2022-08-18T22:29:03.806Z,19.67
2022-08-18T22:31:36.339Z,21.10
2022-08-18T22:34:08.390Z,22.90
2022-08-18T22:36:39.884Z,16.70
2022-08-18T22:39:11.881Z,19.88
2022-08-18T22:41:41.048Z,19.63
2022-08-18T22:44:10.436Z,20.90
2022-08-18T22:46:40.029Z,21.10
2022-08-18T22:49:08.291Z,20.48
2022-08-18T22:51:37.320Z,22.58
2022-08-18T22:54:08.431Z,25.58
2022-08-18T22:56:37.955Z,19.05
2022-08-18T22:59:15.848Z,19.83
2022-08-18T23:01:49.056Z,22.25
2022-08-18T23:04:19.477Z,21.60
2022-08-18T23:06:52.063Z,19.85
2022-08-18T23:09:22.493Z,21.63
2022-08-18T23:11:51.031Z,17.42
2022-08-18T23:14:19.289Z,19.50
2022-08-18T23:16:49.732Z,22.95
2022-08-18T23:19:20.186Z,20.73
2022-08-18T23:21:51.706Z,19.83
2022-08-18T23:24:21.186Z,22.08
2022-08-18T23:26:50.402Z,21.50
2022-08-18T23:29:19.827Z,20.52
2022-08-18T23:31:50.694Z,16.95
2022-08-18T23:34:23.062Z,17.67
2022-08-18T23:36:55.514Z,19.45
2022-08-18T23:39:24.760Z,20.40
2022-08-18T23:41:53.599Z,19.45
2022-08-18T23:44:22.501Z,17.85
2022-08-18T23:46:57.962Z,19.67
2022-08-18T23:49:27.992Z,19.85
2022-08-18T23:51:57.628Z,21.95
2022-08-18T23:54:28.061Z,15.77
2022-08-18T23:56:56.703Z,22.27
2022-08-18T23:59:26.027Z,22.37
